Portada
METAR-TAF:

METAR-TAF

Aeroports :

Al Wajh, Aràbia Saudita

latitud: 26-12N, longitud: 036-28E, altitud: 20 m

Observació

L'informe es va fer fa 37 minuts, a les 08:00 UTC
Vent 10 kt del Oest/Nord-Oest
Temperatura 29°C
Humitat 62%
Pressió 1014 hPa
Visibilitat 10 km o més
sense núvols per sota de 1500 mi sense presència de cumulonimbus.

METAR: OEWJ 200800Z 29010KT CAVOK 29/21 Q1014 NOSIG

Hora: 11:37 (08:37 UTC)

Pronòstic

L'informe es va fer fa 9 hores i 37 minuts, a les 23:00 UTC
Pronòstic vàlid del 20 a les 00 UTC al 21 a les 06 UTC
Vent 6 kt del Nord
Visibilitat: 7000 m
Probabilitat 30% :
Temporalment
l' 20 a les 00 UTC al 20 a les 05 UTC
Visibilitat: 3500 m
boirina
Evolucionant progressivament
l' 20 a les 06 UTC al 20 a les 08 UTC
Vent 16 kt del Nord/Nord-Oest
Evolucionant progressivament
l' 20 a les 20 UTC al 20 a les 22 UTC
Vent 6 kt del Nord

TAF: OEWJ 192300Z 2000/2106 35006KT 7000 NSC PROB30 TEMPO 2000/2005 3500 BR BECMG 2006/2008 33016KT BECMG 2020/2022 35006KT

Observacions i pronòstics meteorològics de més de 4000 aeroports (METAR i TAF).

Les estacions disponibles són els punts grocs i vermells al mapa.

Posi el ratolí al punt desitjat per veure el nom de l'estació.

Feu clic per veure les observacions i els pronòstics meteorològics.

Per canviar el mapa: feu clic els botons verds amb una creu de color negre per apropar; al botó verd amb un guió per allunyar la imatge; o en les fletxes verdes per a mapes adjacents.


METAR-TAF: